createdAt,value
2023-01-19T00:04:59.829Z,63.09
2023-01-19T00:10:03.634Z,64.22
2023-01-19T00:15:08.370Z,64.87
2023-01-19T00:21:08.618Z,64.22
2023-01-19T00:26:12.459Z,64.51
2023-01-19T00:31:16.124Z,62.67
2023-01-19T00:36:20.197Z,63.31
2023-01-19T00:42:01.396Z,64.24
2023-01-19T00:47:05.945Z,64.53
2023-01-19T00:52:09.681Z,64.56
2023-01-19T00:57:13.706Z,63.84
2023-01-19T01:02:17.520Z,64.08
2023-01-19T01:07:25.170Z,63.99
2023-01-19T01:12:29.061Z,59.42
2023-01-19T01:17:32.936Z,59.40
2023-01-19T01:22:36.714Z,62.23
2023-01-19T01:27:40.539Z,68.94
2023-01-19T01:32:44.266Z,66.57
2023-01-19T01:37:47.992Z,64.54
2023-01-19T01:42:51.704Z,64.08
2023-01-19T01:48:02.327Z,64.36
2023-01-19T01:53:16.361Z,65.01
2023-01-19T01:58:20.076Z,65.31
2023-01-19T02:03:25.894Z,65.42
2023-01-19T02:09:26.657Z,64.94
2023-01-19T02:14:30.271Z,65.81
2023-01-19T02:19:44.202Z,66.57
2023-01-19T02:31:40.491Z,67.07
2023-01-19T02:37:03.774Z,66.12
2023-01-19T02:52:47.559Z,63.49
2023-01-19T02:58:09.147Z,63.93
2023-01-19T03:03:43.083Z,64.26
2023-01-19T03:09:29.980Z,64.48
2023-01-19T03:14:41.982Z,65.29
2023-01-19T03:19:50.853Z,65.14
2023-01-19T03:25:01.705Z,64.52
2023-01-19T03:30:15.830Z,65.17
2023-01-19T03:35:24.264Z,63.78
2023-01-19T03:40:32.495Z,63.21
2023-01-19T03:45:40.010Z,61.73
2023-01-19T03:50:43.728Z,62.02
2023-01-19T03:56:21.230Z,61.62
2023-01-19T04:01:26.070Z,61.57
2023-01-19T04:06:29.621Z,61.16
2023-01-19T04:11:33.180Z,61.04
2023-01-19T04:16:36.854Z,61.30
2023-01-19T04:28:44.209Z,62.16
2023-01-19T04:33:47.737Z,62.98
2023-01-19T05:09:19.014Z,65.33
2023-01-19T05:14:58.226Z,64.56
2023-01-19T05:20:02.236Z,64.10
2023-01-19T05:25:24.981Z,64.24
2023-01-19T05:37:49.871Z,63.64
2023-01-19T05:42:53.663Z,63.03
2023-01-19T05:47:57.695Z,62.21
2023-01-19T05:53:03.568Z,62.06
2023-01-19T05:58:07.408Z,62.49
2023-01-19T06:03:11.314Z,63.62
2023-01-19T06:08:15.046Z,64.15
2023-01-19T06:13:18.974Z,65.19
2023-01-19T06:18:22.681Z,66.27
2023-01-19T06:23:30.616Z,66.30
2023-01-19T06:28:34.375Z,65.73
2023-01-19T06:33:37.979Z,66.10
2023-01-19T06:45:46.175Z,65.54
2023-01-19T06:50:50.461Z,65.03
2023-01-19T06:55:54.922Z,65.80
2023-01-19T07:01:36.893Z,66.11
2023-01-19T07:06:40.901Z,65.71
2023-01-19T07:19:14.014Z,65.66
2023-01-19T07:25:08.438Z,66.32
2023-01-19T07:30:31.273Z,65.88
2023-01-19T07:36:02.980Z,65.37
2023-01-19T07:41:10.163Z,65.09
2023-01-19T07:46:39.202Z,65.01
2023-01-19T07:52:01.779Z,65.26
2023-01-19T07:57:36.612Z,66.02
2023-01-19T08:03:18.236Z,66.57
2023-01-19T08:09:58.097Z,66.49
2023-01-19T08:15:01.929Z,67.27
2023-01-19T08:20:32.496Z,67.11
2023-01-19T08:26:52.903Z,66.96
2023-01-19T08:33:14.906Z,66.56
2023-01-19T08:38:46.312Z,66.29
2023-01-19T08:44:13.000Z,66.24
2023-01-19T08:56:22.105Z,65.81
2023-01-19T09:01:26.230Z,65.98
2023-01-19T09:06:34.685Z,65.90
2023-01-19T09:11:57.028Z,65.49
2023-01-19T09:17:26.851Z,65.84
2023-01-19T09:22:30.478Z,66.19
2023-01-19T09:34:44.915Z,65.45
2023-01-19T09:41:05.248Z,64.38
2023-01-19T09:47:02.607Z,64.32
2023-01-19T10:06:36.602Z,64.95
2023-01-19T10:12:19.049Z,65.38
2023-01-19T10:32:13.250Z,65.87
2023-01-19T10:37:32.179Z,66.06
2023-01-19T10:42:38.025Z,66.90
2023-01-19T10:47:43.995Z,68.05
2023-01-19T10:52:53.812Z,67.99
2023-01-19T10:57:59.267Z,68.00
2023-01-19T11:13:15.976Z,67.30
2023-01-19T11:25:49.393Z,66.73
2023-01-19T11:40:14.267Z,66.49
2023-01-19T11:47:01.133Z,66.29
2023-01-19T11:52:15.499Z,66.75
2023-01-19T11:57:50.266Z,66.59
2023-01-19T12:32:31.973Z,67.08
2023-01-19T12:52:48.292Z,66.54
2023-01-19T12:58:15.000Z,65.93
2023-01-19T13:22:06.670Z,65.91
2023-01-19T13:27:41.223Z,65.06
2023-01-19T13:44:52.906Z,63.04
2023-01-19T13:49:59.322Z,63.66
2023-01-19T14:03:52.524Z,65.14
2023-01-19T14:09:19.040Z,66.48
2023-01-19T14:21:45.075Z,62.45
2023-01-19T14:42:16.074Z,62.42
2023-01-19T14:47:35.318Z,61.94
2023-01-19T14:52:42.773Z,62.00
2023-01-19T14:57:47.686Z,63.42
2023-01-19T15:02:51.626Z,61.66
2023-01-19T15:07:57.371Z,62.48
2023-01-19T15:13:01.479Z,62.62
2023-01-19T15:42:53.736Z,65.64
2023-01-19T15:48:11.237Z,66.33
2023-01-19T16:00:43.957Z,65.74
2023-01-19T16:06:37.944Z,65.08
2023-01-19T16:19:26.249Z,65.45
2023-01-19T16:24:29.865Z,65.14
2023-01-19T16:29:52.488Z,65.91
2023-01-19T16:34:56.090Z,66.41
2023-01-19T16:39:59.907Z,66.31
2023-01-19T16:53:42.521Z,66.65
2023-01-19T17:06:42.779Z,67.23
2023-01-19T17:11:47.045Z,67.29
2023-01-19T17:16:50.786Z,67.19
2023-01-19T17:22:44.639Z,66.90
2023-01-19T17:27:48.352Z,66.93
2023-01-19T17:34:18.307Z,67.63
2023-01-19T17:40:18.468Z,67.58
2023-01-19T17:45:48.006Z,67.48
2023-01-19T17:51:11.366Z,67.96
2023-01-19T17:56:41.714Z,67.95
2023-01-19T18:02:04.112Z,67.74
2023-01-19T18:07:10.452Z,67.81
2023-01-19T18:12:33.225Z,67.17
2023-01-19T18:25:11.756Z,66.50
2023-01-19T18:31:13.209Z,66.08
2023-01-19T18:36:36.917Z,65.92
2023-01-19T18:41:44.003Z,66.67
2023-01-19T18:47:06.469Z,66.91
2023-01-19T18:52:35.664Z,67.02
2023-01-19T18:58:34.381Z,66.14
2023-01-19T19:12:52.937Z,65.58
2023-01-19T19:41:04.452Z,65.18
2023-01-19T19:46:23.285Z,65.17
2023-01-19T19:51:31.135Z,65.14
2023-01-19T19:56:37.095Z,65.29
2023-01-19T20:01:44.931Z,65.01
2023-01-19T20:28:21.998Z,65.27
2023-01-19T20:33:25.854Z,65.34
2023-01-19T20:38:29.893Z,65.80
2023-01-19T20:44:55.661Z,65.94
2023-01-19T20:49:59.371Z,65.73
2023-01-19T21:02:19.034Z,65.85
2023-01-19T21:07:22.925Z,63.82
2023-01-19T21:12:26.757Z,63.02
2023-01-19T21:17:30.393Z,62.95
2023-01-19T21:22:34.119Z,63.88
2023-01-19T21:27:38.024Z,63.85
2023-01-19T21:32:42.363Z,63.00
2023-01-19T21:37:46.213Z,63.78
2023-01-19T21:42:49.957Z,63.10
2023-01-19T21:47:53.938Z,62.33
2023-01-19T21:52:58.591Z,63.11
2023-01-19T22:04:54.022Z,64.34
2023-01-19T22:10:02.485Z,65.16
2023-01-19T22:16:51.887Z,65.26
2023-01-19T22:22:02.208Z,65.43
2023-01-19T22:27:12.423Z,65.74
2023-01-19T22:32:17.487Z,65.99
2023-01-19T22:38:56.892Z,66.23
2023-01-19T22:44:51.200Z,67.21
2023-01-19T22:57:02.473Z,66.84
2023-01-19T23:03:22.968Z,66.90
2023-01-19T23:08:52.692Z,67.09
2023-01-19T23:13:58.893Z,68.32
2023-01-19T23:19:28.209Z,67.67
2023-01-19T23:24:32.042Z,67.29
2023-01-19T23:29:54.688Z,67.01
2023-01-19T23:35:49.066Z,67.28
2023-01-19T23:42:14.837Z,67.12
2023-01-19T23:54:45.423Z,66.92
